Time;durP1;ratioP1;P1;durP2;ratioP2;P2;SDS_P1;SDS_P2;PMS_P1;PMS_P2;Temp;Humidity;BMP_temperature;BMP_pressure;BME280_temperature;BME280_humidity;BME280_pressure;Samples;Min_cycle;Max_cycle;Signal;HPM_P1;HPM_P2
2023/10/05 00:02:05;;;;;;;6.53;2.73;;;;;;;;;;5033231;28;20502;-83
2023/10/05 00:04:40;;;;;;;6.63;3.10;;;;;;;;;;5034572;28;20472;-84
2023/10/05 00:07:07;;;;;;;10.90;2.60;;;;;;;;;;5034101;28;20895;-84
2023/10/05 00:09:34;;;;;;;6.43;2.90;;;;;;;;;;5033611;28;20980;-84
2023/10/05 00:12:04;;;;;;;9.10;3.40;;;;;;;;;;5033004;28;20441;-83
2023/10/05 00:14:30;;;;;;;7.37;2.90;;;;;;;;;;5032452;28;21062;-84
2023/10/05 00:17:00;;;;;;;5.37;2.63;;;;;;;;;;5034227;28;20512;-83
2023/10/05 00:19:28;;;;;;;4.40;2.70;;;;;;;;;;5033657;28;20472;-85
2023/10/05 00:21:56;;;;;;;4.90;2.90;;;;;;;;;;5033790;28;20789;-83
2023/10/05 00:24:29;;;;;;;11.33;2.67;;;;;;;;;;5033424;28;20990;-83
2023/10/05 00:26:56;;;;;;;11.63;3.00;;;;;;;;;;5034370;28;20504;-83
2023/10/05 00:29:27;;;;;;;9.93;2.93;;;;;;;;;;5033376;28;20473;-83
2023/10/05 00:31:55;;;;;;;6.43;3.20;;;;;;;;;;5033697;28;20499;-83
2023/10/05 00:34:24;;;;;;;9.40;2.90;;;;;;;;;;5032391;28;20814;-84
2023/10/05 00:36:53;;;;;;;5.90;2.87;;;;;;;;;;5033993;28;20419;-84
2023/10/05 00:39:21;;;;;;;7.70;2.50;;;;;;;;;;5033593;28;20472;-83
2023/10/05 00:41:49;;;;;;;7.07;2.57;;;;;;;;;;5034154;28;20968;-83
2023/10/05 00:44:15;;;;;;;9.97;2.87;;;;;;;;;;5031931;28;20497;-83
2023/10/05 00:46:48;;;;;;;5.33;2.50;;;;;;;;;;5033988;28;20407;-83
2023/10/05 00:49:19;;;;;;;4.80;2.67;;;;;;;;;;5033740;28;20471;-84
2023/10/05 00:51:55;;;;;;;6.10;3.17;;;;;;;;;;5032740;28;20841;-84
2023/10/05 00:54:30;;;;;;;5.03;2.30;;;;;;;;;;5033315;28;20447;-83
2023/10/05 00:56:56;;;;;;;12.07;2.20;;;;;;;;;;5033712;28;20873;-83
2023/10/05 00:59:23;;;;;;;8.23;2.83;;;;;;;;;;5033519;28;20469;-84
2023/10/05 01:02:03;;;;;;;9.17;2.87;;;;;;;;;;5033327;28;20433;-83
2023/10/05 01:04:34;;;;;;;8.73;2.27;;;;;;;;;;5032962;28;20485;-84
2023/10/05 01:07:17;;;;;;;10.40;2.47;;;;;;;;;;5033282;28;20445;-84
2023/10/05 01:10:01;;;;;;;7.37;2.30;;;;;;;;;;5033495;28;20495;-83
2023/10/05 01:12:37;;;;;;;22.73;4.13;;;;;;;;;;5036083;28;20421;-83
2023/10/05 01:15:06;;;;;;;11.33;2.40;;;;;;;;;;5037951;28;20462;-83
2023/10/05 01:17:33;;;;;;;3.90;2.73;;;;;;;;;;5037171;28;20436;-83
2023/10/05 01:20:08;;;;;;;7.33;2.70;;;;;;;;;;5038033;28;20436;-82
2023/10/05 01:22:38;;;;;;;7.13;3.20;;;;;;;;;;5019984;28;20530;-83
2023/10/05 01:25:08;;;;;;;7.10;2.70;;;;;;;;;;5037962;28;20511;-83
2023/10/05 01:27:36;;;;;;;13.30;2.87;;;;;;;;;;5038164;28;20448;-84
2023/10/05 01:30:03;;;;;;;6.67;3.20;;;;;;;;;;5036766;28;20470;-84
2023/10/05 01:32:29;;;;;;;5.63;2.30;;;;;;;;;;5037425;28;20460;-83
2023/10/05 01:34:56;;;;;;;4.13;2.40;;;;;;;;;;5036596;28;20543;-82
2023/10/05 01:37:23;;;;;;;4.80;2.73;;;;;;;;;;5037201;28;20436;-84
2023/10/05 01:39:50;;;;;;;15.93;3.10;;;;;;;;;;5037929;28;20419;-84
2023/10/05 01:42:19;;;;;;;15.70;3.60;;;;;;;;;;5037789;28;20411;-85
2023/10/05 01:44:47;;;;;;;6.17;2.47;;;;;;;;;;5037422;28;20997;-83
2023/10/05 01:47:14;;;;;;;5.30;2.57;;;;;;;;;;5037692;28;20419;-84
2023/10/05 01:49:41;;;;;;;5.67;2.50;;;;;;;;;;5036766;28;20889;-84
2023/10/05 01:52:07;;;;;;;12.93;3.60;;;;;;;;;;5036876;28;20943;-85
2023/10/05 01:54:34;;;;;;;9.30;2.67;;;;;;;;;;5036447;28;20459;-85
2023/10/05 01:57:02;;;;;;;4.37;2.90;;;;;;;;;;5035727;28;20958;-83
2023/10/05 01:59:33;;;;;;;5.40;2.87;;;;;;;;;;5036893;28;20476;-84
2023/10/05 02:02:00;;;;;;;7.77;3.20;;;;;;;;;;5037241;28;20431;-84
2023/10/05 02:04:26;;;;;;;9.27;3.63;;;;;;;;;;5036253;28;20818;-84
2023/10/05 02:06:53;;;;;;;9.23;2.70;;;;;;;;;;5036450;28;20473;-85
2023/10/05 02:09:20;;;;;;;8.13;3.10;;;;;;;;;;5037077;28;20499;-82
2023/10/05 02:11:47;;;;;;;7.33;3.53;;;;;;;;;;5036403;28;20464;-85
2023/10/05 02:14:14;;;;;;;6.77;3.00;;;;;;;;;;5036222;28;20480;-83
2023/10/05 02:16:48;;;;;;;8.40;2.90;;;;;;;;;;5034962;28;20484;-83
2023/10/05 02:19:14;;;;;;;8.30;2.67;;;;;;;;;;5035302;28;20475;-83
2023/10/05 02:21:42;;;;;;;5.60;3.07;;;;;;;;;;5036323;28;20452;-83
2023/10/05 02:24:16;;;;;;;7.20;3.43;;;;;;;;;;5034689;28;20472;-85
2023/10/05 02:26:54;;;;;;;6.80;3.30;;;;;;;;;;5036708;28;20457;-83
2023/10/05 02:29:21;;;;;;;6.13;3.33;;;;;;;;;;5035686;28;20479;-84
2023/10/05 02:31:57;;;;;;;7.40;3.00;;;;;;;;;;5036524;28;20421;-83
2023/10/05 02:34:23;;;;;;;12.43;4.00;;;;;;;;;;5035655;28;20456;-84
2023/10/05 02:36:50;;;;;;;15.10;3.47;;;;;;;;;;5036558;28;20477;-82
2023/10/05 02:39:21;;;;;;;5.97;3.30;;;;;;;;;;5035768;28;20534;-83
2023/10/05 02:41:50;;;;;;;10.63;3.23;;;;;;;;;;5036339;28;20520;-83
2023/10/05 02:44:22;;;;;;;8.47;3.70;;;;;;;;;;5035945;28;20500;-83
2023/10/05 02:46:50;;;;;;;9.67;4.60;;;;;;;;;;5036211;28;20515;-83
2023/10/05 02:49:18;;;;;;;9.20;3.60;;;;;;;;;;5035794;28;20468;-84
2023/10/05 02:51:46;;;;;;;9.87;3.67;;;;;;;;;;5034878;28;20519;-84
2023/10/05 02:54:13;;;;;;;6.43;3.00;;;;;;;;;;5034239;28;20594;-83
2023/10/05 02:56:40;;;;;;;6.27;3.47;;;;;;;;;;5035955;28;20481;-84
2023/10/05 02:59:10;;;;;;;8.57;3.20;;;;;;;;;;5035693;28;20492;-82
2023/10/05 03:01:37;;;;;;;9.80;4.00;;;;;;;;;;5035954;28;20541;-82
2023/10/05 03:04:16;;;;;;;9.73;3.67;;;;;;;;;;5033946;28;20468;-84
2023/10/05 03:06:45;;;;;;;9.27;4.10;;;;;;;;;;5035607;28;20421;-83
2023/10/05 03:09:11;;;;;;;7.30;3.33;;;;;;;;;;5035407;28;20475;-83
2023/10/05 03:11:38;;;;;;;11.30;4.83;;;;;;;;;;5035622;28;20448;-84
2023/10/05 03:14:05;;;;;;;7.80;4.10;;;;;;;;;;5033860;28;20496;-84
2023/10/05 03:16:35;;;;;;;11.30;4.23;;;;;;;;;;5034280;28;20488;-83
2023/10/05 03:19:01;;;;;;;8.90;2.70;;;;;;;;;;5034621;28;20511;-83
2023/10/05 03:21:30;;;;;;;7.37;3.70;;;;;;;;;;5035441;28;20415;-84
2023/10/05 03:23:57;;;;;;;9.20;4.33;;;;;;;;;;5034728;28;20454;-84
2023/10/05 03:26:23;;;;;;;12.27;4.30;;;;;;;;;;5036227;28;20762;-83
2023/10/05 03:28:50;;;;;;;18.37;3.97;;;;;;;;;;5034727;28;20468;-82
2023/10/05 03:31:24;;;;;;;7.60;4.13;;;;;;;;;;5034157;28;20459;-84
2023/10/05 03:33:52;;;;;;;8.67;3.43;;;;;;;;;;5034447;28;20454;-84
2023/10/05 03:36:18;;;;;;;10.50;3.93;;;;;;;;;;5033661;28;20527;-83
2023/10/05 03:38:55;;;;;;;7.87;3.70;;;;;;;;;;5034582;28;20455;-83
2023/10/05 03:41:25;;;;;;;5.40;3.40;;;;;;;;;;5035112;28;20441;-84
2023/10/05 03:43:52;;;;;;;13.27;3.73;;;;;;;;;;5034571;28;20451;-83
2023/10/05 03:46:19;;;;;;;9.23;4.03;;;;;;;;;;5035038;28;20444;-84
2023/10/05 03:48:45;;;;;;;6.87;3.87;;;;;;;;;;5034460;28;20451;-83
2023/10/05 03:51:16;;;;;;;10.73;3.80;;;;;;;;;;5033578;28;20437;-83
2023/10/05 03:53:56;;;;;;;9.10;3.80;;;;;;;;;;5033629;28;20448;-83
2023/10/05 03:56:23;;;;;;;10.53;3.70;;;;;;;;;;5017062;28;20466;-83
2023/10/05 03:58:52;;;;;;;10.57;3.57;;;;;;;;;;5034486;28;20475;-83
2023/10/05 04:01:18;;;;;;;10.70;3.97;;;;;;;;;;5034809;28;20476;-83
2023/10/05 04:03:46;;;;;;;9.70;3.80;;;;;;;;;;5034606;28;20538;-85
2023/10/05 04:06:18;;;;;;;8.73;3.90;;;;;;;;;;5034699;28;20490;-84
2023/10/05 04:08:54;;;;;;;10.90;4.20;;;;;;;;;;5034797;28;20449;-85
2023/10/05 04:11:21;;;;;;;10.80;3.80;;;;;;;;;;5033968;28;20406;-84
2023/10/05 04:13:50;;;;;;;14.27;4.50;;;;;;;;;;5034254;28;20535;-84
2023/10/05 04:16:21;;;;;;;9.43;4.60;;;;;;;;;;5033333;28;20454;-84
2023/10/05 04:18:49;;;;;;;4.60;3.07;;;;;;;;;;5033877;28;20477;-84
2023/10/05 04:21:18;;;;;;;8.13;4.17;;;;;;;;;;5033503;28;20836;-84
2023/10/05 04:23:46;;;;;;;6.90;3.33;;;;;;;;;;5033874;28;20474;-82
2023/10/05 04:26:14;;;;;;;7.37;3.70;;;;;;;;;;5034560;28;20444;-82
2023/10/05 04:28:47;;;;;;;12.53;4.07;;;;;;;;;;5034313;28;20469;-84
2023/10/05 04:31:21;;;;;;;8.90;3.40;;;;;;;;;;5032976;28;20434;-83
2023/10/05 04:33:48;;;;;;;11.23;3.27;;;;;;;;;;5034114;28;20447;-81
2023/10/05 04:36:16;;;;;;;10.63;3.43;;;;;;;;;;5032927;28;20475;-84
2023/10/05 04:38:43;;;;;;;7.80;3.10;;;;;;;;;;5032814;28;20561;-83
2023/10/05 04:41:12;;;;;;;8.77;3.77;;;;;;;;;;5034215;28;20508;-84
2023/10/05 04:43:40;;;;;;;10.57;3.87;;;;;;;;;;5033900;28;20843;-83
2023/10/05 04:46:09;;;;;;;9.20;4.37;;;;;;;;;;5032215;28;20459;-83
2023/10/05 04:48:35;;;;;;;9.97;3.93;;;;;;;;;;5033775;28;20539;-84
2023/10/05 04:51:05;;;;;;;9.23;3.70;;;;;;;;;;5034547;28;20436;-84
2023/10/05 04:53:32;;;;;;;8.90;4.33;;;;;;;;;;5016309;28;20473;-85
2023/10/05 04:56:12;;;;;;;12.23;4.57;;;;;;;;;;5033610;28;20456;-84
2023/10/05 04:59:18;;;;;;;16.23;4.30;;;;;;;;;;5032324;28;20471;-81
2023/10/05 05:01:56;;;;;;;10.83;3.90;;;;;;;;;;5033440;28;20514;-85
2023/10/05 05:04:38;;;;;;;6.00;3.47;;;;;;;;;;5033177;28;20551;-85
2023/10/05 05:07:07;;;;;;;11.73;5.07;;;;;;;;;;5033870;28;20421;-84
2023/10/05 05:09:35;;;;;;;10.87;3.80;;;;;;;;;;5031986;28;20467;-84
2023/10/05 05:12:03;;;;;;;12.30;4.53;;;;;;;;;;5033705;28;20458;-82
2023/10/05 05:14:33;;;;;;;10.87;4.87;;;;;;;;;;5032739;28;20569;-83
2023/10/05 05:17:02;;;;;;;15.77;4.03;;;;;;;;;;5033770;28;20473;-82
2023/10/05 05:19:28;;;;;;;13.00;4.40;;;;;;;;;;5032972;28;20473;-83
2023/10/05 05:21:54;;;;;;;12.93;3.67;;;;;;;;;;5033850;28;20453;-84
2023/10/05 05:24:21;;;;;;;12.00;3.70;;;;;;;;;;5032858;28;20451;-84
2023/10/05 05:26:47;;;;;;;6.30;3.90;;;;;;;;;;5033022;28;20932;-83
2023/10/05 05:29:14;;;;;;;10.00;3.83;;;;;;;;;;5030273;28;20514;-84
2023/10/05 05:31:43;;;;;;;8.30;3.97;;;;;;;;;;5033157;28;20449;-83
2023/10/05 05:34:10;;;;;;;9.43;3.80;;;;;;;;;;5032011;28;20500;-82
2023/10/05 05:36:37;;;;;;;13.80;3.70;;;;;;;;;;5033474;28;20528;-85
2023/10/05 05:39:04;;;;;;;11.27;3.90;;;;;;;;;;5034075;28;21078;-84
2023/10/05 05:41:30;;;;;;;17.97;4.30;;;;;;;;;;5033924;28;20444;-82
2023/10/05 05:43:57;;;;;;;11.00;4.07;;;;;;;;;;5036724;28;20472;-83
2023/10/05 05:46:23;;;;;;;12.83;5.00;;;;;;;;;;5033804;28;20438;-83
2023/10/05 05:48:52;;;;;;;7.77;3.50;;;;;;;;;;5034141;28;20468;-82
2023/10/05 05:51:22;;;;;;;7.90;4.10;;;;;;;;;;5033313;28;20815;-82
2023/10/05 05:53:48;;;;;;;15.70;4.83;;;;;;;;;;5033314;28;20475;-82
2023/10/05 05:56:18;;;;;;;17.37;4.20;;;;;;;;;;5034870;28;20507;-82
2023/10/05 05:58:45;;;;;;;9.17;3.50;;;;;;;;;;5036362;28;20534;-83
2023/10/05 06:01:14;;;;;;;9.87;3.27;;;;;;;;;;5036806;28;20477;-82
2023/10/05 06:03:41;;;;;;;7.97;3.70;;;;;;;;;;5036691;28;20530;-82
2023/10/05 06:06:09;;;;;;;8.20;3.67;;;;;;;;;;5036900;28;20422;-82
2023/10/05 06:08:35;;;;;;;7.07;3.70;;;;;;;;;;5036194;28;20468;-82
2023/10/05 06:11:06;;;;;;;9.60;4.07;;;;;;;;;;5037026;28;20436;-82
2023/10/05 06:13:36;;;;;;;10.30;3.47;;;;;;;;;;5036427;28;20992;-82
2023/10/05 06:16:03;;;;;;;9.70;4.33;;;;;;;;;;5036907;28;20874;-82
2023/10/05 06:18:31;;;;;;;11.40;4.70;;;;;;;;;;5036444;28;20555;-84
2023/10/05 06:20:57;;;;;;;16.00;3.60;;;;;;;;;;5037157;28;20527;-82
2023/10/05 06:23:25;;;;;;;7.27;3.27;;;;;;;;;;5035887;28;20476;-83
2023/10/05 06:25:53;;;;;;;5.10;3.20;;;;;;;;;;5037244;28;20471;-83
2023/10/05 06:28:19;;;;;;;6.83;3.50;;;;;;;;;;5037133;28;20495;-83
2023/10/05 06:30:46;;;;;;;9.57;4.50;;;;;;;;;;5035406;28;20470;-84
2023/10/05 06:33:13;;;;;;;18.47;4.73;;;;;;;;;;5036895;28;20475;-83
2023/10/05 06:35:39;;;;;;;11.63;4.43;;;;;;;;;;5036299;28;20423;-83
2023/10/05 06:38:06;;;;;;;11.63;4.30;;;;;;;;;;5036251;28;20478;-83
2023/10/05 06:40:34;;;;;;;18.23;5.23;;;;;;;;;;5036674;28;20418;-84
2023/10/05 06:43:00;;;;;;;7.43;3.80;;;;;;;;;;5036556;28;20439;-83
2023/10/05 06:45:27;;;;;;;8.17;3.50;;;;;;;;;;5036066;28;20437;-83
2023/10/05 06:47:53;;;;;;;9.67;3.83;;;;;;;;;;5035993;28;20499;-83
2023/10/05 06:50:21;;;;;;;5.90;2.70;;;;;;;;;;5036692;28;20411;-83
2023/10/05 06:52:48;;;;;;;9.03;3.70;;;;;;;;;;5035574;28;20877;-83
2023/10/05 06:55:17;;;;;;;7.10;3.70;;;;;;;;;;5035911;28;20484;-82
2023/10/05 06:57:45;;;;;;;10.90;3.63;;;;;;;;;;5035266;28;20455;-82
2023/10/05 07:00:16;;;;;;;16.33;4.60;;;;;;;;;;5036233;28;20441;-82
2023/10/05 07:02:42;;;;;;;13.73;3.80;;;;;;;;;;5035594;28;20467;-82
2023/10/05 07:05:09;;;;;;;7.27;3.27;;;;;;;;;;5035676;28;20831;-82
2023/10/05 07:07:36;;;;;;;13.57;3.73;;;;;;;;;;5034934;28;21105;-83
2023/10/05 07:10:03;;;;;;;13.87;3.90;;;;;;;;;;5034644;28;20432;-83
2023/10/05 07:12:30;;;;;;;13.30;3.63;;;;;;;;;;5035231;28;20795;-83
2023/10/05 07:14:58;;;;;;;12.00;3.73;;;;;;;;;;5035769;28;20427;-84
2023/10/05 07:17:26;;;;;;;10.40;3.90;;;;;;;;;;5033497;28;20530;-84
2023/10/05 07:19:52;;;;;;;10.27;3.70;;;;;;;;;;5035356;28;20544;-83
2023/10/05 07:22:19;;;;;;;12.03;4.10;;;;;;;;;;5035273;28;20859;-81
2023/10/05 07:24:45;;;;;;;12.13;3.57;;;;;;;;;;5035561;28;20435;-83
2023/10/05 07:27:12;;;;;;;11.33;4.77;;;;;;;;;;5034138;28;20445;-83
2023/10/05 07:29:44;;;;;;;10.00;3.13;;;;;;;;;;5034957;28;20454;-83
2023/10/05 07:32:12;;;;;;;13.57;4.50;;;;;;;;;;5035014;28;20452;-82
2023/10/05 07:34:39;;;;;;;17.57;4.97;;;;;;;;;;5034803;28;20500;-84
2023/10/05 07:37:05;;;;;;;10.70;4.60;;;;;;;;;;5034217;28;20454;-82
2023/10/05 07:39:31;;;;;;;11.97;3.93;;;;;;;;;;5034336;28;20447;-83
2023/10/05 07:41:59;;;;;;;13.10;4.30;;;;;;;;;;5033996;28;20420;-84
2023/10/05 07:44:27;;;;;;;8.90;3.93;;;;;;;;;;5034381;28;20447;-81
2023/10/05 07:46:53;;;;;;;16.60;4.50;;;;;;;;;;5034610;28;20907;-81
2023/10/05 07:49:21;;;;;;;9.17;4.37;;;;;;;;;;5034447;28;20479;-82
2023/10/05 07:51:48;;;;;;;9.73;3.83;;;;;;;;;;5034869;28;20412;-83
2023/10/05 07:54:14;;;;;;;16.10;4.80;;;;;;;;;;5034705;28;20476;-82
2023/10/05 07:56:41;;;;;;;14.90;4.33;;;;;;;;;;5033741;28;21003;-83
2023/10/05 07:59:07;;;;;;;16.17;4.80;;;;;;;;;;5034903;28;20443;-82
2023/10/05 08:01:34;;;;;;;8.40;3.60;;;;;;;;;;5033470;28;20442;-82
2023/10/05 08:04:00;;;;;;;10.40;4.60;;;;;;;;;;5034391;28;20510;-83
2023/10/05 08:06:29;;;;;;;11.73;4.87;;;;;;;;;;5035216;28;20486;-83
2023/10/05 08:08:55;;;;;;;13.13;5.30;;;;;;;;;;5034198;28;20439;-82
2023/10/05 08:11:21;;;;;;;13.10;4.20;;;;;;;;;;5035317;28;20451;-82
2023/10/05 08:13:48;;;;;;;9.10;3.80;;;;;;;;;;5034413;28;20964;-83
2023/10/05 08:16:14;;;;;;;14.53;5.53;;;;;;;;;;5033569;28;20449;-82
2023/10/05 08:18:42;;;;;;;14.53;5.60;;;;;;;;;;5033996;28;20949;-84
2023/10/05 08:21:08;;;;;;;13.33;5.07;;;;;;;;;;5033147;28;20532;-83
2023/10/05 08:23:36;;;;;;;10.03;4.37;;;;;;;;;;5033661;28;20476;-82
2023/10/05 08:26:04;;;;;;;13.20;4.33;;;;;;;;;;5034938;28;20432;-82
2023/10/05 08:28:31;;;;;;;17.67;4.17;;;;;;;;;;5033467;28;20495;-84
2023/10/05 08:31:05;;;;;;;16.03;4.97;;;;;;;;;;5034531;28;20449;-83
2023/10/05 08:33:33;;;;;;;13.40;4.97;;;;;;;;;;5034079;28;20868;-83
2023/10/05 08:36:00;;;;;;;17.17;4.87;;;;;;;;;;5033682;28;20419;-83
2023/10/05 08:38:27;;;;;;;20.73;5.20;;;;;;;;;;5033047;28;20477;-84
2023/10/05 08:40:55;;;;;;;12.73;4.90;;;;;;;;;;5033518;28;20456;-83
2023/10/05 08:43:21;;;;;;;12.30;5.03;;;;;;;;;;5033645;28;20459;-83
2023/10/05 08:45:51;;;;;;;17.23;5.03;;;;;;;;;;5034826;28;20448;-84
2023/10/05 08:48:28;;;;;;;16.17;4.87;;;;;;;;;;5034433;28;20492;-83
2023/10/05 08:50:56;;;;;;;6.60;4.50;;;;;;;;;;5033350;28;20869;-84
2023/10/05 08:53:23;;;;;;;16.97;5.00;;;;;;;;;;5034206;28;20482;-84
2023/10/05 08:55:52;;;;;;;8.23;4.33;;;;;;;;;;5033251;28;20436;-85
2023/10/05 08:58:20;;;;;;;10.37;5.17;;;;;;;;;;5033359;28;20480;-84
2023/10/05 09:00:46;;;;;;;16.33;5.07;;;;;;;;;;5034219;28;20411;-84
2023/10/05 09:03:29;;;;;;;13.73;5.70;;;;;;;;;;5034133;28;20452;-83
2023/10/05 09:06:13;;;;;;;13.87;5.30;;;;;;;;;;5034935;28;20427;-84
2023/10/05 09:08:51;;;;;;;14.27;5.13;;;;;;;;;;5033790;28;20534;-83
2023/10/05 09:11:20;;;;;;;10.77;4.53;;;;;;;;;;5034541;28;20794;-84
2023/10/05 09:13:48;;;;;;;11.57;4.80;;;;;;;;;;5033966;28;20447;-82
2023/10/05 09:16:22;;;;;;;17.37;5.73;;;;;;;;;;5034260;28;20415;-84
2023/10/05 09:18:49;;;;;;;18.00;5.90;;;;;;;;;;5032781;28;21065;-83
2023/10/05 09:21:18;;;;;;;13.30;4.80;;;;;;;;;;5035027;28;20422;-83
2023/10/05 09:23:46;;;;;;;13.13;5.23;;;;;;;;;;5034089;28;21017;-84
2023/10/05 09:26:26;;;;;;;11.50;5.23;;;;;;;;;;5034678;28;20452;-84
2023/10/05 09:29:12;;;;;;;10.87;4.77;;;;;;;;;;5034645;28;20476;-84
2023/10/05 09:31:41;;;;;;;11.83;5.20;;;;;;;;;;5035394;28;20936;-84
2023/10/05 09:34:14;;;;;;;9.60;4.67;;;;;;;;;;5039481;28;20455;-84
2023/10/05 09:36:40;;;;;;;7.83;4.90;;;;;;;;;;5040004;28;20410;-83
2023/10/05 09:39:11;;;;;;;10.17;5.10;;;;;;;;;;5037340;28;20447;-83
2023/10/05 09:41:37;;;;;;;12.33;5.17;;;;;;;;;;5038574;28;20877;-84
2023/10/05 09:44:07;;;;;;;10.63;5.30;;;;;;;;;;5036428;28;20505;-82
2023/10/05 09:46:34;;;;;;;7.73;4.63;;;;;;;;;;5036211;28;20445;-84
2023/10/05 09:49:02;;;;;;;12.33;4.70;;;;;;;;;;5035836;28;20468;-84
2023/10/05 09:51:29;;;;;;;10.53;4.80;;;;;;;;;;5037649;28;20423;-84
2023/10/05 09:53:58;;;;;;;12.23;4.60;;;;;;;;;;5037247;28;20479;-83
2023/10/05 09:56:25;;;;;;;7.07;3.77;;;;;;;;;;5019767;28;20431;-84
2023/10/05 09:58:53;;;;;;;5.23;3.80;;;;;;;;;;5037085;28;20484;-83
2023/10/05 10:01:22;;;;;;;4.60;3.50;;;;;;;;;;5037548;28;20439;-83
2023/10/05 10:03:52;;;;;;;7.37;3.20;;;;;;;;;;5037193;28;20804;-83
2023/10/05 10:06:19;;;;;;;4.03;2.90;;;;;;;;;;5037220;28;20427;-84
2023/10/05 10:08:53;;;;;;;4.13;2.60;;;;;;;;;;5036892;28;20446;-83
2023/10/05 10:11:23;;;;;;;4.23;2.30;;;;;;;;;;5036868;28;20423;-83
2023/10/05 10:13:52;;;;;;;2.30;2.10;;;;;;;;;;5036978;28;20451;-83
2023/10/05 10:16:22;;;;;;;2.47;1.77;;;;;;;;;;5036507;28;20444;-84
2023/10/05 10:18:48;;;;;;;3.63;2.10;;;;;;;;;;5036634;28;20481;-83
2023/10/05 10:21:25;;;;;;;4.90;1.83;;;;;;;;;;5036445;28;20498;-83
2023/10/05 10:24:00;;;;;;;3.77;2.33;;;;;;;;;;5036073;28;20472;-84
2023/10/05 10:26:26;;;;;;;5.23;1.83;;;;;;;;;;5037770;28;20416;-83
2023/10/05 10:28:57;;;;;;;5.20;1.87;;;;;;;;;;5037472;28;20476;-83
2023/10/05 10:31:30;;;;;;;3.93;2.50;;;;;;;;;;5036247;28;20441;-82
2023/10/05 10:33:57;;;;;;;5.33;1.90;;;;;;;;;;5036731;28;20662;-83
2023/10/05 10:36:44;;;;;;;8.60;2.33;;;;;;;;;;5036740;28;20955;-83
2023/10/05 10:39:23;;;;;;;11.33;1.70;;;;;;;;;;5036554;28;20884;-83
2023/10/05 10:42:03;;;;;;;4.53;1.90;;;;;;;;;;5037333;28;20861;-83
2023/10/05 10:44:41;;;;;;;2.73;1.73;;;;;;;;;;5034907;28;20455;-83
2023/10/05 10:47:11;;;;;;;3.93;2.00;;;;;;;;;;5035603;28;20467;-83
2023/10/05 10:49:40;;;;;;;3.17;2.00;;;;;;;;;;5035447;28;20472;-83
2023/10/05 10:52:09;;;;;;;11.17;2.57;;;;;;;;;;5036513;28;20880;-83
2023/10/05 10:54:37;;;;;;;6.80;1.97;;;;;;;;;;5034624;28;20474;-83
2023/10/05 10:57:06;;;;;;;5.63;2.30;;;;;;;;;;5037471;28;20411;-84
2023/10/05 10:59:41;;;;;;;6.53;1.73;;;;;;;;;;5041175;28;20447;-85
2023/10/05 11:02:12;;;;;;;5.13;1.93;;;;;;;;;;5037696;28;20956;-84
2023/10/05 11:04:39;;;;;;;5.17;2.03;;;;;;;;;;5036484;28;20479;-84
2023/10/05 11:07:06;;;;;;;7.90;2.60;;;;;;;;;;5035802;28;20423;-83
2023/10/05 11:09:37;;;;;;;3.43;2.10;;;;;;;;;;5019506;28;20536;-84
2023/10/05 11:12:11;;;;;;;6.30;2.30;;;;;;;;;;5037146;28;20434;-84
2023/10/05 11:14:38;;;;;;;6.03;2.10;;;;;;;;;;5034821;28;20552;-84
2023/10/05 11:17:11;;;;;;;5.17;2.77;;;;;;;;;;5035564;28;20444;-84
2023/10/05 11:19:40;;;;;;;4.43;2.00;;;;;;;;;;5036230;28;20447;-84
2023/10/05 11:22:11;;;;;;;6.20;2.50;;;;;;;;;;5036496;28;20445;-83
2023/10/05 11:24:56;;;;;;;6.03;2.20;;;;;;;;;;5034980;28;20530;-83
2023/10/05 11:27:23;;;;;;;5.43;2.57;;;;;;;;;;5035471;28;20448;-83
2023/10/05 11:29:55;;;;;;;7.73;2.40;;;;;;;;;;5034360;28;20453;-83
2023/10/05 11:32:24;;;;;;;8.80;2.70;;;;;;;;;;5035008;28;20822;-83
2023/10/05 11:34:55;;;;;;;5.97;2.60;;;;;;;;;;5034998;28;20469;-83
2023/10/05 11:37:25;;;;;;;5.13;2.10;;;;;;;;;;5035437;28;20435;-83
2023/10/05 11:39:58;;;;;;;5.00;2.20;;;;;;;;;;5035329;28;20496;-85
2023/10/05 11:42:26;;;;;;;7.47;2.60;;;;;;;;;;5028908;28;21022;-84
2023/10/05 11:44:55;;;;;;;7.93;2.40;;;;;;;;;;5053330;28;20510;-83
2023/10/05 11:47:25;;;;;;;5.10;2.23;;;;;;;;;;5033789;28;20955;-82
2023/10/05 11:49:56;;;;;;;8.33;2.93;;;;;;;;;;5036114;28;20448;-83
2023/10/05 11:52:23;;;;;;;9.60;3.13;;;;;;;;;;5034560;28;20429;-82
2023/10/05 11:54:53;;;;;;;5.03;2.50;;;;;;;;;;5035724;28;20461;-83
2023/10/05 11:57:20;;;;;;;7.20;2.83;;;;;;;;;;5035326;28;20451;-82
2023/10/05 11:59:46;;;;;;;6.47;3.03;;;;;;;;;;5035287;28;20483;-82
2023/10/05 12:02:12;;;;;;;9.80;3.70;;;;;;;;;;5035592;28;20817;-83
2023/10/05 12:04:39;;;;;;;7.20;3.40;;;;;;;;;;5035352;28;20503;-83
2023/10/05 12:07:08;;;;;;;4.50;2.87;;;;;;;;;;5033859;28;20449;-82
2023/10/05 12:09:36;;;;;;;10.50;2.60;;;;;;;;;;5034770;28;20476;-81
2023/10/05 12:12:03;;;;;;;6.13;2.90;;;;;;;;;;5033716;28;20869;-83
2023/10/05 12:14:30;;;;;;;8.80;2.63;;;;;;;;;;5035212;28;20507;-82
2023/10/05 12:16:57;;;;;;;7.47;2.43;;;;;;;;;;5035749;28;20782;-83
2023/10/05 12:19:27;;;;;;;9.13;2.50;;;;;;;;;;5033660;28;20479;-82
2023/10/05 12:21:55;;;;;;;9.93;2.50;;;;;;;;;;5034447;28;20452;-82
2023/10/05 12:24:23;;;;;;;6.30;2.10;;;;;;;;;;5034657;28;21020;-83
2023/10/05 12:26:50;;;;;;;8.23;2.23;;;;;;;;;;5035062;28;20437;-82
2023/10/05 12:29:17;;;;;;;6.60;3.03;;;;;;;;;;5033702;28;20491;-83
2023/10/05 12:31:44;;;;;;;5.93;2.57;;;;;;;;;;5034137;28;20417;-82
2023/10/05 12:34:14;;;;;;;5.37;1.40;;;;;;;;;;5034252;28;20476;-82
2023/10/05 12:36:46;;;;;;;4.67;1.13;;;;;;;;;;5034438;28;20536;-82
2023/10/05 12:39:13;;;;;;;5.47;2.40;;;;;;;;;;5033606;28;20539;-83
2023/10/05 12:41:41;;;;;;;6.67;1.60;;;;;;;;;;5034594;28;20935;-82
2023/10/05 12:44:09;;;;;;;9.00;2.27;;;;;;;;;;5034394;28;20559;-83
2023/10/05 12:46:39;;;;;;;7.33;2.53;;;;;;;;;;5034536;28;21021;-84
2023/10/05 12:49:07;;;;;;;7.43;1.47;;;;;;;;;;5033311;28;20523;-82
2023/10/05 12:51:34;;;;;;;11.63;2.80;;;;;;;;;;5034811;28;20801;-82
2023/10/05 12:54:00;;;;;;;8.13;1.97;;;;;;;;;;5034158;28;20505;-82
2023/10/05 12:56:26;;;;;;;9.67;1.40;;;;;;;;;;5034399;28;20976;-84
2023/10/05 12:58:54;;;;;;;7.93;1.57;;;;;;;;;;5032924;28;20546;-83
2023/10/05 13:01:21;;;;;;;10.67;1.57;;;;;;;;;;5034099;28;20445;-83
2023/10/05 13:03:50;;;;;;;4.73;1.77;;;;;;;;;;5034321;28;20451;-82
2023/10/05 13:06:17;;;;;;;5.93;1.43;;;;;;;;;;5016666;28;20445;-83
2023/10/05 13:08:44;;;;;;;11.97;3.70;;;;;;;;;;5032493;28;20465;-84
2023/10/05 13:11:11;;;;;;;3.80;2.00;;;;;;;;;;5034626;28;20522;-83
2023/10/05 13:13:39;;;;;;;8.73;2.03;;;;;;;;;;5034275;28;20480;-82
2023/10/05 13:16:14;;;;;;;8.87;2.90;;;;;;;;;;5034288;28;20441;-82
2023/10/05 13:18:42;;;;;;;9.10;4.97;;;;;;;;;;5034065;28;20904;-82
2023/10/05 13:21:11;;;;;;;6.60;1.57;;;;;;;;;;5034298;28;20544;-82
2023/10/05 13:23:38;;;;;;;4.20;1.43;;;;;;;;;;5034210;28;20827;-82
2023/10/05 13:26:06;;;;;;;6.57;2.27;;;;;;;;;;5034229;28;20437;-82
2023/10/05 13:28:33;;;;;;;8.87;2.50;;;;;;;;;;5033678;28;20560;-81
2023/10/05 13:31:05;;;;;;;4.30;1.87;;;;;;;;;;5033833;28;20449;-82
2023/10/05 13:33:35;;;;;;;6.03;1.87;;;;;;;;;;5033778;28;20469;-82
2023/10/05 13:36:05;;;;;;;14.00;2.00;;;;;;;;;;5033930;28;20931;-82
2023/10/05 13:38:33;;;;;;;3.13;1.50;;;;;;;;;;5033519;28;20535;-83
2023/10/05 13:41:13;;;;;;;3.73;1.67;;;;;;;;;;5032444;28;20456;-82
2023/10/05 13:43:39;;;;;;;3.43;1.70;;;;;;;;;;5033918;28;21068;-83
2023/10/05 13:46:12;;;;;;;9.53;1.90;;;;;;;;;;5033815;28;20441;-81
2023/10/05 13:48:41;;;;;;;4.20;1.73;;;;;;;;;;5032307;28;20882;-83
2023/10/05 13:51:11;;;;;;;6.87;1.80;;;;;;;;;;5033790;28;20445;-84
2023/10/05 13:53:38;;;;;;;7.80;2.40;;;;;;;;;;5033606;28;20560;-83
2023/10/05 13:56:04;;;;;;;2.70;1.40;;;;;;;;;;5033717;28;20416;-83
2023/10/05 13:58:31;;;;;;;6.27;2.10;;;;;;;;;;5033144;28;20574;-84
2023/10/05 14:01:01;;;;;;;5.73;1.87;;;;;;;;;;5034162;28;20468;-84
2023/10/05 14:03:27;;;;;;;5.77;1.83;;;;;;;;;;5032202;28;20994;-85
2023/10/05 14:06:01;;;;;;;7.67;2.03;;;;;;;;;;5033918;28;20805;-84
2023/10/05 14:08:27;;;;;;;6.43;1.70;;;;;;;;;;5033718;28;20473;-83
2023/10/05 14:10:54;;;;;;;5.17;1.90;;;;;;;;;;5033754;28;20432;-84
2023/10/05 14:13:22;;;;;;;11.43;2.10;;;;;;;;;;5032450;28;20840;-84
2023/10/05 14:15:48;;;;;;;8.03;1.70;;;;;;;;;;5033742;28;20490;-83
2023/10/05 14:18:16;;;;;;;6.87;2.20;;;;;;;;;;5033702;28;20472;-83
2023/10/05 14:20:47;;;;;;;2.67;1.67;;;;;;;;;;5037618;28;20801;-84
2023/10/05 14:23:15;;;;;;;4.53;1.83;;;;;;;;;;5036608;28;20479;-84
2023/10/05 14:25:42;;;;;;;9.77;2.50;;;;;;;;;;5036523;28;20541;-83
2023/10/05 14:28:09;;;;;;;5.07;3.00;;;;;;;;;;5036680;28;20476;-83
2023/10/05 14:30:37;;;;;;;8.23;2.80;;;;;;;;;;5036886;28;20843;-84
2023/10/05 14:33:03;;;;;;;9.70;4.00;;;;;;;;;;5036476;28;20850;-83
2023/10/05 14:35:30;;;;;;;8.50;3.10;;;;;;;;;;5036962;28;20901;-83
2023/10/05 14:37:58;;;;;;;8.50;3.67;;;;;;;;;;5036544;28;20473;-83
2023/10/05 14:40:26;;;;;;;7.90;3.40;;;;;;;;;;5038394;28;20500;-87
2023/10/05 14:42:55;;;;;;;7.70;3.87;;;;;;;;;;5036960;28;20526;-83
2023/10/05 14:45:26;;;;;;;4.53;3.20;;;;;;;;;;5036997;28;20468;-81
2023/10/05 14:47:52;;;;;;;6.70;3.37;;;;;;;;;;5035040;28;20468;-85
2023/10/05 14:50:19;;;;;;;5.60;2.70;;;;;;;;;;5036791;28;20437;-81